createdAt,value
2019-03-10T00:01:41.647Z,65.12
2019-03-10T00:04:13.684Z,65.19
2019-03-10T00:06:45.488Z,65.54
2019-03-10T00:09:17.418Z,66.07
2019-03-10T00:11:48.986Z,65.42
2019-03-10T00:14:20.843Z,66.10
2019-03-10T00:16:52.414Z,65.78
2019-03-10T00:19:24.069Z,65.51
2019-03-10T00:21:56.303Z,65.45
2019-03-10T00:24:27.905Z,66.55
2019-03-10T00:26:59.401Z,66.34
2019-03-10T00:29:30.972Z,66.34
2019-03-10T00:32:02.640Z,66.81
2019-03-10T00:34:34.117Z,66.76
2019-03-10T00:37:05.868Z,66.69
2019-03-10T00:40:31.875Z,66.81
2019-03-10T00:43:36.440Z,67.91
2019-03-10T00:46:45.766Z,67.06
2019-03-10T00:50:01.402Z,67.06
2019-03-10T00:52:37.617Z,66.36
2019-03-10T00:55:09.462Z,67.31
2019-03-10T00:57:40.993Z,67.31
2019-03-10T01:00:17.900Z,68.47
2019-03-10T01:02:49.511Z,68.21
2019-03-10T01:05:21.543Z,68.21
2019-03-10T01:07:53.080Z,67.77
2019-03-10T01:10:25.070Z,67.35
2019-03-10T01:12:56.782Z,67.35
2019-03-10T01:15:28.854Z,67.67
2019-03-10T01:18:00.475Z,68.31
2019-03-10T01:20:33.470Z,68.31
2019-03-10T01:23:05.757Z,68.72
2019-03-10T01:25:37.417Z,68.38
2019-03-10T01:28:09.185Z,60.78
2019-03-10T01:30:51.878Z,60.78
2019-03-10T01:33:51.601Z,58.22
2019-03-10T01:36:20.905Z,57.87
2019-03-10T01:38:52.499Z,57.87
2019-03-10T01:41:24.015Z,57.71
2019-03-10T01:43:55.617Z,57.70
2019-03-10T01:46:27.355Z,59.26
2019-03-10T01:48:58.675Z,59.26
2019-03-10T01:51:30.461Z,59.75
2019-03-10T01:54:02.031Z,59.50
2019-03-10T01:56:33.996Z,59.50
2019-03-10T01:59:05.702Z,58.09
2019-03-10T02:01:37.464Z,57.67
2019-03-10T02:04:08.962Z,56.84
2019-03-10T02:06:40.553Z,56.61
2019-03-10T02:09:12.494Z,56.29
2019-03-10T02:11:44.768Z,56.08
2019-03-10T02:14:16.334Z,55.58
2019-03-10T02:16:48.016Z,55.58
2019-03-10T02:19:19.583Z,55.53
2019-03-10T02:21:52.702Z,54.98
2019-03-10T02:24:24.395Z,54.98
2019-03-10T02:26:55.989Z,55.08
2019-03-10T02:29:27.431Z,55.00
2019-03-10T02:31:58.973Z,54.89
2019-03-10T02:34:30.375Z,55.00
2019-03-10T02:37:01.956Z,55.48
2019-03-10T02:39:33.634Z,55.48
2019-03-10T02:42:05.405Z,55.37
2019-03-10T02:44:36.883Z,54.79
2019-03-10T02:47:08.301Z,54.79
2019-03-10T02:49:40.013Z,55.32
2019-03-10T02:52:11.627Z,55.86
2019-03-10T02:54:43.386Z,56.28
2019-03-10T02:57:14.956Z,56.72
2019-03-10T02:59:46.462Z,56.72
2019-03-10T03:02:18.228Z,56.26
2019-03-10T03:04:50.363Z,56.31
2019-03-10T03:07:22.170Z,56.10
2019-03-10T03:09:54.246Z,55.73
2019-03-10T03:12:26.092Z,55.79
2019-03-10T03:14:57.985Z,55.79
2019-03-10T03:17:29.618Z,55.91
2019-03-10T03:20:01.223Z,56.59
2019-03-10T03:22:32.793Z,56.59
2019-03-10T03:25:05.002Z,56.34
2019-03-10T03:27:36.560Z,56.34
2019-03-10T03:30:08.750Z,56.85
2019-03-10T03:32:40.573Z,56.66
2019-03-10T03:35:45.012Z,56.46
2019-03-10T03:38:18.304Z,56.46
2019-03-10T03:40:53.567Z,56.52
2019-03-10T03:43:25.209Z,57.28
2019-03-10T03:45:57.113Z,56.16
2019-03-10T03:48:28.833Z,56.16
2019-03-10T03:51:00.567Z,56.51
2019-03-10T03:53:32.566Z,56.39
2019-03-10T03:56:04.150Z,55.67
2019-03-10T03:58:35.949Z,55.70
2019-03-10T04:01:14.239Z,54.83
2019-03-10T04:03:45.964Z,54.83
2019-03-10T04:06:17.965Z,55.38
2019-03-10T04:08:49.654Z,55.38
2019-03-10T04:11:21.447Z,55.49
2019-03-10T04:13:53.478Z,54.99
2019-03-10T04:16:26.051Z,54.99
2019-03-10T04:18:57.717Z,55.66
2019-03-10T04:21:29.511Z,55.18
2019-03-10T04:24:01.464Z,55.18
2019-03-10T04:26:34.168Z,54.88
2019-03-10T04:29:06.258Z,54.88
2019-03-10T04:31:38.496Z,54.21
2019-03-10T04:34:10.313Z,54.21
2019-03-10T04:36:42.207Z,53.34
2019-03-10T04:39:14.009Z,53.55
2019-03-10T04:41:45.470Z,53.12
2019-03-10T04:44:17.405Z,53.12
2019-03-10T04:46:49.235Z,52.78
2019-03-10T04:49:20.865Z,52.41
2019-03-10T04:51:52.590Z,52.55
2019-03-10T04:54:51.223Z,52.54
2019-03-10T04:57:23.113Z,52.14
2019-03-10T04:59:55.146Z,52.14
2019-03-10T05:02:27.428Z,52.90
2019-03-10T05:04:59.473Z,49.51
2019-03-10T05:07:31.111Z,51.65
2019-03-10T05:10:02.778Z,47.00
2019-03-10T05:12:34.603Z,50.30
2019-03-10T05:15:07.334Z,50.30
2019-03-10T05:17:38.828Z,50.65
2019-03-10T05:20:10.635Z,50.77
2019-03-10T05:22:42.136Z,50.77
2019-03-10T05:25:14.065Z,50.19
2019-03-10T05:27:45.693Z,49.36
2019-03-10T05:30:17.397Z,48.88
2019-03-10T05:32:49.080Z,48.88
2019-03-10T05:35:20.779Z,47.04
2019-03-10T05:37:52.466Z,47.04
2019-03-10T05:40:25.129Z,46.59
2019-03-10T05:42:56.658Z,47.10
2019-03-10T05:45:28.415Z,46.28
2019-03-10T05:48:00.154Z,47.73
2019-03-10T05:50:31.554Z,46.41
2019-03-10T05:53:03.216Z,46.31
2019-03-10T05:55:34.719Z,46.31
2019-03-10T05:58:06.585Z,48.35
2019-03-10T06:00:42.800Z,45.24
2019-03-10T06:03:12.264Z,45.59
2019-03-10T06:05:43.870Z,45.59
2019-03-10T06:08:15.679Z,44.14
2019-03-10T06:10:47.397Z,44.14
2019-03-10T06:13:18.782Z,39.44
2019-03-10T06:15:50.306Z,40.91
2019-03-10T06:18:21.863Z,40.55
2019-03-10T06:20:53.429Z,40.55
2019-03-10T06:23:25.341Z,40.36
2019-03-10T06:25:56.931Z,43.47
2019-03-10T06:28:29.773Z,40.15
2019-03-10T06:31:01.391Z,40.15
2019-03-10T06:33:33.003Z,39.90
2019-03-10T06:36:04.857Z,41.86
2019-03-10T06:38:36.397Z,41.86
2019-03-10T06:41:07.838Z,41.35
2019-03-10T06:43:39.084Z,41.35
2019-03-10T06:46:10.637Z,41.16
2019-03-10T06:48:42.273Z,38.01
2019-03-10T06:51:13.511Z,41.94
2019-03-10T06:53:45.254Z,41.14
2019-03-10T06:56:17.178Z,42.20
2019-03-10T06:58:49.346Z,42.94
2019-03-10T07:01:20.977Z,37.67
2019-03-10T07:03:53.148Z,37.67
2019-03-10T07:06:25.606Z,37.09
2019-03-10T07:08:58.888Z,37.09
2019-03-10T07:11:30.375Z,40.40
2019-03-10T07:14:02.146Z,34.82
2019-03-10T07:16:33.776Z,35.79
2019-03-10T07:19:05.983Z,36.83
2019-03-10T07:21:37.508Z,36.83
2019-03-10T07:24:08.938Z,38.05
2019-03-10T07:26:40.699Z,35.16
2019-03-10T07:29:21.909Z,35.16
2019-03-10T07:31:59.055Z,34.39
2019-03-10T07:35:04.677Z,37.53
2019-03-10T07:38:04.610Z,38.86
2019-03-10T07:40:56.179Z,34.83
2019-03-10T07:43:56.066Z,34.54
2019-03-10T07:46:48.852Z,34.86
2019-03-10T07:49:31.081Z,33.84
2019-03-10T07:52:27.530Z,33.84
2019-03-10T07:55:34.000Z,31.49
2019-03-10T07:58:23.162Z,33.81
2019-03-10T08:01:13.877Z,36.01
2019-03-10T08:04:19.720Z,36.01
2019-03-10T08:07:13.593Z,33.63
2019-03-10T08:10:05.021Z,33.63
2019-03-10T08:12:55.918Z,34.35
2019-03-10T08:15:52.238Z,34.04
2019-03-10T08:18:42.648Z,33.05
2019-03-10T08:21:29.887Z,31.08
2019-03-10T08:24:26.466Z,31.70
2019-03-10T08:27:07.655Z,30.88
2019-03-10T08:29:56.647Z,34.27
2019-03-10T08:32:50.688Z,35.05
2019-03-10T08:35:31.551Z,30.52
2019-03-10T08:38:18.759Z,30.52
2019-03-10T08:41:09.518Z,32.10
2019-03-10T08:43:53.636Z,32.10
2019-03-10T08:46:42.963Z,30.36
2019-03-10T08:49:29.198Z,30.74
2019-03-10T08:52:19.576Z,33.84
2019-03-10T08:55:01.803Z,33.84
2019-03-10T08:58:01.644Z,32.77
2019-03-10T09:00:52.658Z,30.13
2019-03-10T09:03:36.024Z,29.33
2019-03-10T09:06:35.376Z,29.56
2019-03-10T09:09:39.292Z,30.01
2019-03-10T09:12:26.935Z,30.01
2019-03-10T09:15:23.191Z,30.05
2019-03-10T09:18:19.892Z,31.42
2019-03-10T09:20:58.762Z,31.04
2019-03-10T09:23:48.396Z,31.04
2019-03-10T09:26:38.539Z,32.28
2019-03-10T09:29:23.971Z,32.33
2019-03-10T09:32:12.597Z,32.33
2019-03-10T09:34:51.727Z,33.22
2019-03-10T09:37:42.450Z,32.22
2019-03-10T09:40:30.036Z,30.43
2019-03-10T09:43:18.891Z,30.43
2019-03-10T09:45:57.107Z,30.51
2019-03-10T09:48:45.798Z,30.51
2019-03-10T09:51:47.756Z,30.30
2019-03-10T09:54:37.746Z,31.78
2019-03-10T09:57:31.230Z,31.78
2019-03-10T10:00:26.393Z,31.50
2019-03-10T10:03:16.172Z,31.50
2019-03-10T10:06:04.280Z,31.94
2019-03-10T10:08:55.057Z,32.21
2019-03-10T10:11:49.338Z,32.21
2019-03-10T10:14:40.489Z,31.28
2019-03-10T10:17:31.452Z,30.96
2019-03-10T10:20:27.085Z,30.96
2019-03-10T10:23:15.996Z,31.12
2019-03-10T10:25:55.118Z,31.12
2019-03-10T10:28:45.410Z,31.43
2019-03-10T10:31:38.908Z,32.30
2019-03-10T10:34:39.186Z,33.04
2019-03-10T10:37:40.834Z,33.04
2019-03-10T10:40:29.099Z,32.10
2019-03-10T10:43:19.529Z,32.38
2019-03-10T10:46:10.991Z,33.40
2019-03-10T10:48:48.717Z,32.71
2019-03-10T10:51:41.832Z,32.71
2019-03-10T10:54:47.972Z,31.96
2019-03-10T10:57:43.893Z,33.13
2019-03-10T11:00:48.128Z,34.27
2019-03-10T11:03:42.592Z,34.27
2019-03-10T11:06:39.413Z,32.79
2019-03-10T11:09:22.939Z,31.20
2019-03-10T11:12:11.002Z,31.20
2019-03-10T11:15:07.043Z,31.02
2019-03-10T11:17:44.485Z,33.01
2019-03-10T11:20:43.522Z,33.01
2019-03-10T11:23:43.460Z,34.45
2019-03-10T11:26:21.373Z,33.64
2019-03-10T11:29:11.537Z,35.45
2019-03-10T11:32:02.469Z,35.45
2019-03-10T11:34:42.568Z,31.76
2019-03-10T11:37:25.826Z,32.26
2019-03-10T11:40:16.247Z,31.70
2019-03-10T11:43:12.543Z,31.61
2019-03-10T11:46:03.591Z,31.61
2019-03-10T11:48:57.331Z,31.90
2019-03-10T11:51:46.400Z,31.90
2019-03-10T11:54:23.444Z,31.45
2019-03-10T11:57:14.295Z,33.81
2019-03-10T12:00:11.244Z,32.57
2019-03-10T12:02:59.856Z,33.05
2019-03-10T12:05:40.555Z,32.00
2019-03-10T12:08:46.738Z,32.66
2019-03-10T12:11:18.865Z,32.66
2019-03-10T12:13:50.892Z,32.84
2019-03-10T12:16:22.722Z,33.29
2019-03-10T12:18:54.385Z,33.96
2019-03-10T12:21:26.146Z,33.79
2019-03-10T12:23:57.989Z,33.77
2019-03-10T12:26:30.210Z,34.76
2019-03-10T12:29:02.061Z,34.76
2019-03-10T12:31:33.846Z,34.96
2019-03-10T12:34:05.746Z,35.63
2019-03-10T12:36:37.888Z,35.56
2019-03-10T12:39:10.284Z,35.56
2019-03-10T12:41:42.392Z,36.47
2019-03-10T12:44:14.310Z,36.47
2019-03-10T12:46:46.398Z,36.59
2019-03-10T12:49:18.077Z,37.14
2019-03-10T12:51:50.028Z,37.14
2019-03-10T12:54:21.643Z,37.44
2019-03-10T12:56:53.344Z,38.12
2019-03-10T12:59:24.943Z,37.85
2019-03-10T13:01:56.764Z,37.49
2019-03-10T13:04:29.590Z,38.74
2019-03-10T13:07:01.495Z,38.63
2019-03-10T13:09:33.105Z,38.63
2019-03-10T13:12:04.645Z,39.13
2019-03-10T13:14:36.111Z,38.87
2019-03-10T13:17:07.806Z,39.08
2019-03-10T13:19:39.326Z,40.03
2019-03-10T13:22:11.347Z,39.61
2019-03-10T13:24:42.952Z,39.61
2019-03-10T13:27:14.771Z,38.63
2019-03-10T13:29:46.433Z,39.14
2019-03-10T13:32:17.886Z,39.14
2019-03-10T13:34:49.693Z,39.61
2019-03-10T13:37:21.478Z,39.61
2019-03-10T13:39:52.969Z,40.04
2019-03-10T13:42:24.559Z,40.04
2019-03-10T13:44:55.939Z,39.91
2019-03-10T13:47:27.304Z,41.44
2019-03-10T13:49:58.786Z,40.08
2019-03-10T13:52:31.513Z,41.66
2019-03-10T13:55:03.452Z,41.34
2019-03-10T13:57:34.816Z,41.34
2019-03-10T14:00:08.108Z,42.70
2019-03-10T14:02:39.515Z,42.70
2019-03-10T14:05:11.382Z,42.44
2019-03-10T14:07:43.364Z,41.30
2019-03-10T14:10:15.191Z,41.30
2019-03-10T14:12:47.088Z,41.55
2019-03-10T14:15:18.764Z,43.50
2019-03-10T14:17:50.703Z,42.90
2019-03-10T14:20:22.527Z,42.90
2019-03-10T14:22:55.253Z,43.78
2019-03-10T14:25:27.112Z,43.34
2019-03-10T14:27:59.002Z,42.53
2019-03-10T14:30:30.991Z,45.09
2019-03-10T14:33:02.899Z,42.56
2019-03-10T14:35:34.434Z,44.23
2019-03-10T14:38:06.175Z,44.23
2019-03-10T14:40:37.655Z,45.38
2019-03-10T14:43:09.613Z,43.83
2019-03-10T14:45:42.270Z,44.15
2019-03-10T14:48:14.197Z,44.34
2019-03-10T14:50:46.794Z,44.45
2019-03-10T14:53:18.301Z,44.15
2019-03-10T14:55:50.889Z,44.14
2019-03-10T14:58:22.625Z,44.14
2019-03-10T15:00:54.063Z,44.31
2019-03-10T15:03:25.685Z,44.45
2019-03-10T15:05:57.391Z,44.58
2019-03-10T15:08:29.249Z,44.53
2019-03-10T15:11:00.942Z,44.72
2019-03-10T15:13:32.700Z,44.72
2019-03-10T15:16:08.001Z,44.51
2019-03-10T15:18:39.926Z,44.41
2019-03-10T15:21:11.544Z,44.69
2019-03-10T15:23:43.250Z,45.06
2019-03-10T15:26:15.130Z,45.06
2019-03-10T15:28:46.975Z,44.87
2019-03-10T15:31:18.585Z,44.87
2019-03-10T15:33:51.087Z,44.71
2019-03-10T15:36:22.702Z,45.44
2019-03-10T15:38:54.363Z,45.44
2019-03-10T15:41:46.333Z,45.44
2019-03-10T15:46:47.992Z,44.64
2019-03-10T15:49:19.533Z,44.34
2019-03-10T15:51:51.220Z,44.97
2019-03-10T15:54:22.572Z,44.97
2019-03-10T15:56:54.192Z,44.62
2019-03-10T15:59:25.967Z,45.09
2019-03-10T16:01:57.644Z,45.09
2019-03-10T16:04:29.117Z,45.16
2019-03-10T16:07:02.205Z,45.17
2019-03-10T16:09:33.708Z,45.17
2019-03-10T16:12:05.521Z,45.30
2019-03-10T16:14:36.937Z,45.30
2019-03-10T16:17:08.660Z,45.23
2019-03-10T16:19:40.275Z,44.88
2019-03-10T16:22:12.087Z,44.97
2019-03-10T16:24:43.475Z,44.89
2019-03-10T16:27:14.953Z,44.96
2019-03-10T16:29:46.699Z,44.32
2019-03-10T16:32:18.603Z,44.38
2019-03-10T16:34:50.193Z,44.38
2019-03-10T16:37:22.116Z,43.79
2019-03-10T16:39:53.877Z,43.85
2019-03-10T16:42:25.402Z,44.83
2019-03-10T16:44:57.129Z,45.23
2019-03-10T16:47:29.104Z,45.23
2019-03-10T16:50:00.678Z,44.50
2019-03-10T16:52:32.545Z,44.32
2019-03-10T16:55:04.258Z,44.32
2019-03-10T16:57:35.830Z,44.89
2019-03-10T17:00:09.478Z,45.69
2019-03-10T17:02:43.277Z,44.62
2019-03-10T17:05:16.019Z,44.62
2019-03-10T17:07:47.799Z,45.96
2019-03-10T17:10:19.638Z,45.96
2019-03-10T17:12:51.428Z,46.04
2019-03-10T17:15:23.592Z,47.05
2019-03-10T17:17:55.268Z,45.78
2019-03-10T17:20:27.291Z,45.78
2019-03-10T17:22:58.953Z,45.32
2019-03-10T17:25:30.630Z,45.32
2019-03-10T17:28:02.387Z,45.45
2019-03-10T17:30:34.475Z,45.45
2019-03-10T17:33:06.557Z,45.10
2019-03-10T17:35:38.219Z,45.10
2019-03-10T17:38:09.861Z,46.10
2019-03-10T17:40:41.674Z,46.10
2019-03-10T17:43:13.255Z,45.85
2019-03-10T17:45:44.842Z,45.92
2019-03-10T17:48:16.305Z,45.93
2019-03-10T17:50:47.917Z,46.59
2019-03-10T17:53:19.509Z,47.29
2019-03-10T17:55:51.492Z,46.63
2019-03-10T17:58:23.197Z,47.07
2019-03-10T18:00:54.981Z,47.07
2019-03-10T18:03:27.115Z,47.13
2019-03-10T18:05:58.595Z,47.13
2019-03-10T18:08:30.427Z,47.01
2019-03-10T18:11:02.111Z,47.01
2019-03-10T18:13:33.683Z,47.58
2019-03-10T18:16:05.640Z,47.58
2019-03-10T18:18:37.521Z,47.27
2019-03-10T18:21:09.626Z,47.52
2019-03-10T18:23:41.188Z,47.52
2019-03-10T18:26:12.718Z,47.97
2019-03-10T18:28:44.934Z,47.92
2019-03-10T18:31:16.396Z,47.42
2019-03-10T18:33:48.011Z,47.81
2019-03-10T18:36:19.779Z,47.45
2019-03-10T18:38:51.440Z,47.45
2019-03-10T18:41:23.267Z,47.67
2019-03-10T18:43:54.960Z,47.18
2019-03-10T18:46:26.730Z,46.98
2019-03-10T18:48:58.492Z,46.98
2019-03-10T18:51:30.040Z,47.96
2019-03-10T18:54:01.555Z,47.68
2019-03-10T18:56:33.201Z,47.13
2019-03-10T18:59:05.359Z,46.98
2019-03-10T19:01:36.843Z,46.98
2019-03-10T19:04:08.748Z,47.32
2019-03-10T19:06:40.287Z,46.72
2019-03-10T19:09:11.813Z,46.72
2019-03-10T19:11:43.598Z,47.09
2019-03-10T19:14:15.112Z,47.09
2019-03-10T19:16:46.860Z,47.13
2019-03-10T19:19:18.579Z,47.19
2019-03-10T19:21:50.876Z,47.19
2019-03-10T19:24:22.693Z,47.10
2019-03-10T19:26:54.523Z,46.27
2019-03-10T19:29:26.210Z,46.57
2019-03-10T19:31:57.888Z,46.86
2019-03-10T19:34:29.245Z,46.86
2019-03-10T19:37:01.219Z,46.87
2019-03-10T19:39:32.939Z,47.31
2019-03-10T19:42:04.531Z,47.31
2019-03-10T19:44:36.438Z,46.93
2019-03-10T19:47:08.095Z,46.57
2019-03-10T19:49:39.583Z,46.57
2019-03-10T19:52:10.850Z,46.39
2019-03-10T19:54:42.218Z,45.93
2019-03-10T19:57:14.031Z,45.93
2019-03-10T19:59:45.475Z,45.41
2019-03-10T20:02:17.050Z,45.61
2019-03-10T20:04:48.507Z,45.39
2019-03-10T20:07:20.070Z,45.43
2019-03-10T20:09:51.835Z,45.47
2019-03-10T20:12:23.309Z,45.46
2019-03-10T20:14:55.086Z,45.50
2019-03-10T20:17:26.710Z,45.24
2019-03-10T20:19:58.565Z,45.41
2019-03-10T20:22:30.240Z,45.18
2019-03-10T20:25:01.953Z,45.18
2019-03-10T20:27:33.845Z,45.32
2019-03-10T20:30:05.692Z,45.80
2019-03-10T20:32:37.696Z,45.92
2019-03-10T20:35:09.467Z,45.92
2019-03-10T20:37:41.008Z,45.52
2019-03-10T20:40:14.408Z,46.02
2019-03-10T20:42:45.987Z,45.37
2019-03-10T20:45:17.706Z,46.23
2019-03-10T20:47:49.817Z,46.63
2019-03-10T20:50:21.476Z,46.77
2019-03-10T20:52:53.295Z,47.23
2019-03-10T20:55:24.724Z,47.03
2019-03-10T20:57:56.236Z,47.10
2019-03-10T21:00:27.916Z,47.05
2019-03-10T21:02:59.724Z,47.01
2019-03-10T21:05:31.350Z,47.01
2019-03-10T21:08:03.315Z,47.96
2019-03-10T21:10:34.856Z,47.22
2019-03-10T21:13:06.376Z,47.38
2019-03-10T21:15:38.219Z,47.55
2019-03-10T21:18:09.649Z,47.55
2019-03-10T21:20:41.233Z,46.69
2019-03-10T21:23:12.921Z,47.22
2019-03-10T21:25:44.776Z,46.85
2019-03-10T21:28:16.663Z,46.85
2019-03-10T21:30:48.386Z,46.93
2019-03-10T21:33:19.864Z,47.34
2019-03-10T21:35:51.773Z,47.38
2019-03-10T21:38:23.194Z,47.49
2019-03-10T21:40:54.915Z,47.49
2019-03-10T21:43:26.757Z,47.35
2019-03-10T21:45:58.302Z,47.31
2019-03-10T21:48:30.029Z,47.57
2019-03-10T21:51:01.731Z,47.57
2019-03-10T21:53:33.344Z,47.69
2019-03-10T21:56:05.123Z,48.18
2019-03-10T21:58:36.430Z,48.07
2019-03-10T22:01:08.278Z,48.68
2019-03-10T22:03:40.963Z,48.68
2019-03-10T22:06:12.599Z,48.52
2019-03-10T22:08:44.183Z,48.03
2019-03-10T22:11:15.792Z,48.03
2019-03-10T22:13:47.183Z,49.65
2019-03-10T22:16:18.790Z,49.65
2019-03-10T22:18:50.698Z,49.80
2019-03-10T22:21:22.350Z,49.80
2019-03-10T22:23:59.313Z,49.56
2019-03-10T22:26:26.881Z,50.60
2019-03-10T22:28:58.647Z,51.01
2019-03-10T22:31:30.834Z,51.60
2019-03-10T22:34:02.546Z,51.29
2019-03-10T22:36:34.329Z,51.29
2019-03-10T22:39:08.070Z,51.18
2019-03-10T22:41:39.806Z,51.25
2019-03-10T22:44:11.245Z,51.64
2019-03-10T22:46:42.853Z,51.54
2019-03-10T22:49:14.511Z,51.41
2019-03-10T22:51:45.902Z,51.28
2019-03-10T22:54:17.574Z,51.20
2019-03-10T22:56:49.105Z,51.20
2019-03-10T22:59:20.841Z,51.43
2019-03-10T23:01:52.452Z,51.45
2019-03-10T23:04:24.268Z,51.68
2019-03-10T23:06:55.918Z,52.18
2019-03-10T23:09:27.633Z,52.18
2019-03-10T23:11:59.112Z,52.60
2019-03-10T23:14:30.847Z,52.60
2019-03-10T23:17:02.434Z,52.29
2019-03-10T23:19:34.138Z,52.18
2019-03-10T23:22:05.914Z,52.11
2019-03-10T23:24:37.700Z,52.54
2019-03-10T23:27:09.104Z,52.39
2019-03-10T23:29:40.559Z,52.94
2019-03-10T23:32:11.928Z,52.94
2019-03-10T23:34:43.904Z,52.59
2019-03-10T23:37:15.532Z,52.59
2019-03-10T23:39:46.893Z,52.52
2019-03-10T23:42:18.368Z,53.63
2019-03-10T23:44:49.986Z,53.63
2019-03-10T23:47:21.447Z,53.03
2019-03-10T23:49:52.724Z,53.40
2019-03-10T23:52:24.302Z,53.40
2019-03-10T23:54:55.610Z,53.47
2019-03-10T23:57:27.226Z,53.79
2019-03-10T23:59:58.856Z,54.00
